Time;durP1;ratioP1;P1;durP2;ratioP2;P2;SDS_P1;SDS_P2;PMS_P1;PMS_P2;Temp;Humidity;BMP_temperature;BMP_pressure;BME280_temperature;BME280_humidity;BME280_pressure;Samples;Min_cycle;Max_cycle;Signal;HPM_P1;HPM_P2
2022/10/18 00:00:58;;;;;;;;;;;11.30;99.90;;;;;;6019081;23;20026;-75
2022/10/18 00:04:17;;;;;;;;;;;;;;;;;;;;;
2022/10/18 00:17:00;;;;;;;;;;;11.20;99.90;;;;;;5997533;23;19989;-74
2022/10/18 00:19:58;;;;;;;;;;;11.20;99.90;;;;;;5971047;23;19961;-77
2022/10/18 00:27:01;;;;;;;;;;;11.10;99.90;;;;;;6100088;23;19963;-75
2022/10/18 00:30:38;;;;;;;;;;;11.10;99.90;;;;;;6009708;23;20006;-75
2022/10/18 00:37:26;;;;;;;;;;;11.00;99.90;;;;;;5926306;24;19920;-77
2022/10/18 00:44:04;;;;;;;;;;;;;;;;;;;;;
2022/10/18 01:14:49;;;;;;;;;;;10.70;99.90;;;;;;5864409;24;20011;-75
2022/10/18 01:21:27;;;;;;;;;;;;;;;;;;;;;
2022/10/18 01:38:56;;;;;;;;;;;10.60;99.90;;;;;;5928812;24;19927;-75
2022/10/18 01:42:36;;;;;;;;;;;;;;;;;;;;;
2022/10/18 01:46:03;;;;;;;;;;;10.50;99.90;;;;;;5867327;24;19916;-75
2022/10/18 01:52:29;;;;;;;;;;;;;;;;;;;;;
2022/10/18 02:51:19;;;;;;;;;;;;;;;;;;;;;
2022/10/18 03:01:36;;;;;;;;;;;;;;;;;;;;;
2022/10/18 03:12:04;;;;;;;;;;;9.70;99.90;;;;;;5738510;24;20006;-75
2022/10/18 03:22:31;;;;;;;;;;;;;;;;;;;;;
2022/10/18 03:29:14;;;;;;;;;;;9.60;99.90;;;;;;5597940;25;19916;-75
2022/10/18 03:36:15;;;;;;;;;;;;;;;;;;;;;
2022/10/18 04:28:10;;;;;;;;;;;9.10;99.90;;;;;;5743758;24;20040;-79
2022/10/18 04:38:06;;;;;;;;;;;9.00;99.90;;;;;;5740092;25;20321;-74
2022/10/18 04:59:30;;;;;;;;;;;;;;;;;;;;;
2022/10/18 05:19:25;;;;;;;;;;;8.20;99.90;;;;;;5765565;24;20238;-73
2022/10/18 05:42:50;;;;;;;;;;;8.20;99.90;;;;;;5898710;24;19966;-73
2022/10/18 06:04:09;;;;;;;;;;;8.00;99.90;;;;;;5901189;23;19915;-73
2022/10/18 06:36:00;;;;;;;;;;;8.10;99.90;;;;;;5705300;25;19953;-72
2022/10/18 06:38:59;;;;;;;;;;;8.60;99.90;;;;;;5680567;25;19926;-71
2022/10/18 06:41:28;;;;;;;;;;;7.90;99.90;;;;;;5772850;24;19951;-71
2022/10/18 06:43:56;;;;;;;;;;;7.70;99.90;;;;;;5878129;23;19914;-75
2022/10/18 06:46:28;;;;;;;;;;;7.80;99.90;;;;;;6041989;23;19913;-73
2022/10/18 06:48:56;;;;;;;;;;;7.70;99.90;;;;;;6042130;23;19918;-73
2022/10/18 06:51:37;;;;;;;;;;;;;;;;;;;;;
2022/10/18 06:57:25;;;;;;;;;;;7.90;99.90;;;;;;6041301;23;19996;-72
2022/10/18 06:59:53;;;;;;;;;;;8.10;99.90;;;;;;6063013;23;19920;-73
2022/10/18 07:02:19;;;;;;;;;;;8.20;99.90;;;;;;6047323;23;19913;-69
2022/10/18 07:04:56;;;;;;;;;;;8.20;99.90;;;;;;6085200;23;19992;-72
2022/10/18 07:07:31;;;;;;;;;;;8.20;99.90;;;;;;6132775;23;20308;-72
2022/10/18 07:10:10;;;;;;;;;;;;;;;;;;;;;
2022/10/18 07:12:50;;;;;;;;;;;8.60;99.90;;;;;;6087782;23;20324;-74
2022/10/18 07:15:42;;;;;;;;;;;9.00;99.90;;;;;;6103814;23;19924;-72
2022/10/18 07:22:02;;;;;;;;;;;9.20;99.90;;;;;;6050209;23;19914;-72
2022/10/18 07:24:27;;;;;;;;;;;9.60;99.90;;;;;;6146892;23;19976;-74
2022/10/18 07:26:53;;;;;;;;;;;9.50;99.90;;;;;;6103961;23;20271;-72
2022/10/18 07:29:18;;;;;;;;;;;9.70;99.90;;;;;;6104499;23;19971;-72
2022/10/18 07:31:44;;;;;;;;;;;9.90;99.90;;;;;;6129218;23;19916;-71
2022/10/18 07:34:10;;;;;;;;;;;10.10;99.90;;;;;;6104678;23;19917;-71
2022/10/18 07:36:36;;;;;;;;;;;10.20;99.90;;;;;;6104871;23;19990;-72
2022/10/18 07:39:02;;;;;;;;;;;10.40;99.90;;;;;;6130558;23;19941;-73
2022/10/18 07:41:28;;;;;;;;;;;10.40;99.90;;;;;;6105638;23;19951;-72
2022/10/18 07:43:54;;;;;;;;;;;10.60;99.90;;;;;;6106166;23;19919;-71
2022/10/18 07:46:20;;;;;;;;;;;10.60;99.90;;;;;;6129975;23;19983;-73
2022/10/18 07:48:46;;;;;;;;;;;10.70;99.90;;;;;;6130724;23;19948;-72
2022/10/18 07:51:12;;;;;;;;;;;10.80;99.90;;;;;;6106814;23;20235;-73
2022/10/18 07:53:37;;;;;;;;;;;10.90;99.90;;;;;;6130688;23;20008;-74
2022/10/18 07:56:04;;;;;;;;;;;10.90;99.90;;;;;;6082308;23;19916;-72
2022/10/18 07:58:31;;;;;;;;;;;11.00;99.90;;;;;;6130627;23;19959;-72
2022/10/18 08:00:56;;;;;;;;;;;11.10;99.90;;;;;;6131172;23;20227;-72
2022/10/18 08:03:22;;;;;;;;;;;11.20;99.90;;;;;;6106966;23;19983;-70
2022/10/18 08:05:52;;;;;;;;;;;11.40;99.90;;;;;;6130543;23;19921;-72
2022/10/18 08:08:17;;;;;;;;;;;11.50;99.90;;;;;;6107914;23;19923;-72
2022/10/18 08:10:43;;;;;;;;;;;11.60;99.90;;;;;;6132203;23;19967;-71
2022/10/18 08:13:08;;;;;;;;;;;11.70;99.90;;;;;;6132192;23;19924;-72
2022/10/18 08:15:34;;;;;;;;;;;11.80;99.90;;;;;;6132181;23;20011;-72
2022/10/18 08:17:59;;;;;;;;;;;11.90;99.90;;;;;;6107765;23;19917;-70
2022/10/18 08:20:25;;;;;;;;;;;12.00;99.90;;;;;;6132224;23;20235;-71
2022/10/18 08:22:51;;;;;;;;;;;12.10;99.90;;;;;;6107792;23;19920;-72
2022/10/18 08:25:16;;;;;;;;;;;12.30;99.90;;;;;;6131941;23;20312;-71
2022/10/18 08:27:42;;;;;;;;;;;12.40;99.90;;;;;;6132126;23;19962;-72
2022/10/18 08:30:08;;;;;;;;;;;12.50;99.90;;;;;;6107763;23;19994;-71
2022/10/18 08:32:34;;;;;;;;;;;12.60;99.90;;;;;;6132172;23;19916;-71
2022/10/18 08:34:59;;;;;;;;;;;12.80;99.90;;;;;;6107476;23;19952;-72
2022/10/18 08:37:25;;;;;;;;;;;12.90;99.90;;;;;;6131946;23;19917;-73
2022/10/18 08:39:50;;;;;;;;;;;13.00;99.90;;;;;;6107300;23;20429;-72
2022/10/18 08:42:28;;;;;;;;;;;13.10;99.90;;;;;;6132070;23;19916;-71
2022/10/18 08:44:54;;;;;;;;;;;13.20;99.90;;;;;;6158022;23;19952;-71
2022/10/18 08:47:22;;;;;;;;;;;13.40;99.90;;;;;;6131142;23;20232;-72
2022/10/18 08:49:48;;;;;;;;;;;13.40;99.90;;;;;;6131785;23;19927;-71
2022/10/18 08:52:13;;;;;;;;;;;13.50;99.90;;;;;;6131004;23;20212;-73
2022/10/18 08:54:50;;;;;;;;;;;13.60;99.90;;;;;;6131847;23;19924;-71
2022/10/18 08:57:17;;;;;;;;;;;13.80;99.90;;;;;;6107493;23;19940;-72
2022/10/18 08:59:43;;;;;;;;;;;13.80;99.90;;;;;;6131780;23;19967;-71
2022/10/18 09:02:17;;;;;;;;;;;13.90;99.90;;;;;;6107331;23;19925;-71
2022/10/18 09:04:43;;;;;;;;;;;14.00;99.90;;;;;;6107356;23;19917;-71
2022/10/18 09:07:20;;;;;;;;;;;14.10;99.90;;;;;;6131602;23;19928;-71
2022/10/18 09:09:51;;;;;;;;;;;14.20;99.90;;;;;;6107349;23;19916;-72
2022/10/18 09:12:20;;;;;;;;;;;14.30;99.90;;;;;;6131822;23;19916;-72
2022/10/18 09:14:52;;;;;;;;;;;14.40;99.90;;;;;;6131301;23;19917;-72
2022/10/18 09:17:20;;;;;;;;;;;14.50;99.90;;;;;;6131504;23;20276;-73
2022/10/18 09:20:05;;;;;;;;;;;14.50;99.90;;;;;;6107233;23;19924;-70
2022/10/18 09:22:38;;;;;;;;;;;14.60;99.90;;;;;;6131461;23;19948;-72
2022/10/18 09:25:16;;;;;;;;;;;14.60;99.90;;;;;;6107398;23;19987;-72
2022/10/18 09:27:49;;;;;;;;;;;14.70;99.90;;;;;;6131085;23;19921;-73
2022/10/18 09:30:30;;;;;;;;;;;14.80;99.90;;;;;;6107116;23;19916;-72
2022/10/18 09:33:03;;;;;;;;;;;14.90;99.90;;;;;;6107110;23;19923;-72
2022/10/18 09:35:41;;;;;;;;;;;14.90;99.90;;;;;;6131637;23;19921;-73
2022/10/18 09:38:09;;;;;;;;;;;15.00;99.90;;;;;;6157261;23;19955;-71
2022/10/18 09:40:37;;;;;;;;;;;15.00;99.90;;;;;;6131427;23;19917;-74
2022/10/18 09:43:10;;;;;;;;;;;15.00;99.90;;;;;;6131761;23;19916;-74
2022/10/18 09:45:43;;;;;;;;;;;15.10;99.90;;;;;;6157291;23;19952;-75
2022/10/18 09:51:36;;;;;;;;;;;15.20;99.90;;;;;;6118806;23;19916;-72
2022/10/18 09:54:30;;;;;;;;;;;15.20;99.90;;;;;;6156939;23;20217;-71
2022/10/18 09:57:02;;;;;;;;;;;15.20;99.90;;;;;;6100991;23;20239;-71
2022/10/18 09:59:31;;;;;;;;;;;15.30;99.90;;;;;;6156685;23;19913;-71
2022/10/18 10:01:56;;;;;;;;;;;15.20;99.90;;;;;;6157309;23;19913;-75
2022/10/18 10:04:22;;;;;;;;;;;15.20;99.90;;;;;;6103970;23;19971;-72
2022/10/18 10:06:48;;;;;;;;;;;15.20;99.90;;;;;;6129464;23;19921;-76
2022/10/18 10:09:36;;;;;;;;;;;15.20;99.90;;;;;;6081247;23;20239;-77
2022/10/18 10:12:02;;;;;;;;;;;15.20;99.90;;;;;;6104330;23;19924;-74
2022/10/18 10:14:29;;;;;;;;;;;15.00;99.90;;;;;;6129657;23;19912;-74
2022/10/18 10:16:57;;;;;;;;;;;14.90;99.90;;;;;;6104835;23;19916;-71
2022/10/18 10:19:29;;;;;;;;;;;14.90;99.90;;;;;;6105081;23;20283;-71
2022/10/18 10:21:58;;;;;;;;;;;14.90;99.90;;;;;;6129698;23;20374;-70
2022/10/18 10:24:25;;;;;;;;;;;14.90;99.90;;;;;;6129645;23;19995;-71
2022/10/18 10:30:26;;;;;;;;;;;14.90;99.90;;;;;;6117385;23;19911;-72
2022/10/18 10:32:52;;;;;;;;;;;15.00;99.90;;;;;;6129173;23;19925;-72
2022/10/18 10:35:19;;;;;;;;;;;15.20;99.90;;;;;;6105057;23;19917;-76
2022/10/18 10:37:49;;;;;;;;;;;15.30;99.90;;;;;;6129272;23;19917;-72
2022/10/18 10:40:17;;;;;;;;;;;15.20;99.90;;;;;;6129399;23;20335;-72
2022/10/18 10:42:54;;;;;;;;;;;15.10;99.90;;;;;;6155746;23;20007;-73
2022/10/18 10:45:24;;;;;;;;;;;15.10;99.90;;;;;;6129418;23;20338;-71
2022/10/18 10:47:51;;;;;;;;;;;15.10;99.90;;;;;;6128111;23;19924;-72
2022/10/18 10:50:26;;;;;;;;;;;15.00;99.90;;;;;;6155250;23;20243;-74
2022/10/18 10:52:53;;;;;;;;;;;14.90;99.90;;;;;;6104999;23;19920;-74
2022/10/18 10:55:21;;;;;;;;;;;14.90;99.90;;;;;;6129346;23;19920;-74
2022/10/18 10:57:48;;;;;;;;;;;15.00;99.90;;;;;;6129039;23;19923;-74
2022/10/18 11:00:32;;;;;;;;;;;15.00;99.90;;;;;;6105022;23;20243;-69
2022/10/18 11:03:10;;;;;;;;;;;15.00;99.90;;;;;;6129432;23;19967;-71
2022/10/18 11:05:43;;;;;;;;;;;14.90;99.90;;;;;;6155407;23;19917;-70
2022/10/18 11:08:10;;;;;;;;;;;14.90;99.90;;;;;;6129101;23;19967;-72
2022/10/18 11:10:49;;;;;;;;;;;14.90;99.90;;;;;;6105044;23;19916;-69
2022/10/18 11:13:35;;;;;;;;;;;14.90;99.90;;;;;;6104881;23;19952;-72
2022/10/18 11:16:23;;;;;;;;;;;14.80;99.90;;;;;;6128857;23;19960;-70
2022/10/18 11:18:50;;;;;;;;;;;14.80;99.90;;;;;;6104673;23;19916;-70
2022/10/18 11:21:17;;;;;;;;;;;14.80;99.90;;;;;;6128461;23;19967;-71
2022/10/18 11:23:44;;;;;;;;;;;14.90;99.90;;;;;;6128530;23;19956;-74
2022/10/18 11:26:09;;;;;;;;;;;15.00;99.90;;;;;;6154754;23;19917;-73
2022/10/18 11:29:07;;;;;;;;;;;15.00;99.90;;;;;;6129210;23;19917;-82
2022/10/18 11:31:33;;;;;;;;;;;15.10;99.90;;;;;;6026538;23;19917;-73
2022/10/18 11:34:14;;;;;;;;;;;15.10;99.90;;;;;;6154970;23;19940;-76
2022/10/18 11:36:58;;;;;;;;;;;15.20;99.90;;;;;;6128899;23;19923;-73
2022/10/18 11:39:27;;;;;;;;;;;15.20;99.90;;;;;;6104720;23;19924;-76
2022/10/18 11:41:57;;;;;;;;;;;15.20;99.90;;;;;;6129025;23;20355;-71
2022/10/18 11:44:35;;;;;;;;;;;15.10;99.90;;;;;;6155106;23;20291;-75
2022/10/18 11:47:01;;;;;;;;;;;15.10;99.90;;;;;;6103832;23;20298;-70
2022/10/18 11:49:32;;;;;;;;;;;15.00;99.90;;;;;;6105558;23;19916;-71
2022/10/18 11:52:04;;;;;;;;;;;15.00;99.90;;;;;;6130480;23;19971;-76
2022/10/18 11:54:30;;;;;;;;;;;15.00;99.90;;;;;;6130381;23;19917;-71
2022/10/18 11:57:14;;;;;;;;;;;15.10;99.90;;;;;;6106080;23;19967;-72
2022/10/18 11:59:53;;;;;;;;;;;15.20;99.90;;;;;;6130161;23;19916;-73
2022/10/18 12:02:39;;;;;;;;;;;15.20;99.90;;;;;;6130420;23;19921;-70
2022/10/18 12:05:05;;;;;;;;;;;15.30;99.90;;;;;;6129324;23;19917;-72
2022/10/18 12:07:41;;;;;;;;;;;15.30;99.90;;;;;;6129071;23;19920;-71
2022/10/18 12:10:58;;;;;;;;;;;;;;;;;;;;;
2022/10/18 12:13:29;;;;;;;;;;;15.30;99.90;;;;;;5983798;23;19957;-72
2022/10/18 12:15:55;;;;;;;;;;;15.30;99.90;;;;;;5983702;23;20011;-71
2022/10/18 12:18:24;;;;;;;;;;;15.30;99.90;;;;;;6057054;23;19920;-71
2022/10/18 12:20:53;;;;;;;;;;;15.30;99.90;;;;;;6104402;23;19916;-72
2022/10/18 12:23:23;;;;;;;;;;;15.30;99.90;;;;;;6130211;23;19916;-73
2022/10/18 12:25:51;;;;;;;;;;;15.30;99.90;;;;;;6105652;23;19923;-72
2022/10/18 12:28:31;;;;;;;;;;;15.30;99.90;;;;;;6130317;23;19929;-72
2022/10/18 12:31:11;;;;;;;;;;;15.30;99.90;;;;;;6156662;23;20216;-71
2022/10/18 12:33:38;;;;;;;;;;;15.30;99.90;;;;;;6130472;23;19919;-72
2022/10/18 12:36:16;;;;;;;;;;;15.30;99.90;;;;;;6104861;23;19916;-74
2022/10/18 12:38:44;;;;;;;;;;;15.30;99.90;;;;;;6131411;23;19993;-73
2022/10/18 12:41:19;;;;;;;;;;;15.30;99.90;;;;;;6131726;23;19983;-72
2022/10/18 12:43:53;;;;;;;;;;;15.30;99.90;;;;;;6131642;23;20315;-72
2022/10/18 12:46:18;;;;;;;;;;;15.30;99.90;;;;;;6131435;23;19966;-73
2022/10/18 12:48:47;;;;;;;;;;;15.30;99.90;;;;;;6107626;23;19955;-70
2022/10/18 12:51:18;;;;;;;;;;;15.40;99.90;;;;;;6131975;23;20334;-71
2022/10/18 12:53:55;;;;;;;;;;;15.40;99.90;;;;;;6107350;23;20359;-72
2022/10/18 12:56:27;;;;;;;;;;;15.40;99.90;;;;;;6106845;23;20308;-72
2022/10/18 12:59:13;;;;;;;;;;;15.50;99.90;;;;;;6106988;23;19963;-73
2022/10/18 13:01:53;;;;;;;;;;;15.50;99.90;;;;;;6061569;23;19945;-73
2022/10/18 13:04:31;;;;;;;;;;;15.40;99.90;;;;;;6131738;23;19913;-73
2022/10/18 13:06:59;;;;;;;;;;;15.40;99.90;;;;;;6131500;23;19976;-72
2022/10/18 13:09:29;;;;;;;;;;;15.40;99.90;;;;;;6107040;23;19916;-72
2022/10/18 13:12:03;;;;;;;;;;;15.40;99.90;;;;;;6106010;23;19920;-71
2022/10/18 13:14:34;;;;;;;;;;;15.50;99.90;;;;;;6105980;23;19921;-73
2022/10/18 13:16:59;;;;;;;;;;;15.50;99.90;;;;;;6106639;23;19916;-71
2022/10/18 13:19:44;;;;;;;;;;;15.50;99.90;;;;;;6156965;23;20240;-72
2022/10/18 13:22:27;;;;;;;;;;;15.60;99.90;;;;;;6106959;23;19916;-73
2022/10/18 13:25:17;;;;;;;;;;;15.50;99.90;;;;;;6157657;23;19916;-73
2022/10/18 13:27:42;;;;;;;;;;;15.70;99.90;;;;;;6131460;23;20316;-71
2022/10/18 13:30:08;;;;;;;;;;;15.60;99.90;;;;;;6131571;23;19963;-72
2022/10/18 13:32:33;;;;;;;;;;;15.60;99.90;;;;;;6131325;23;19987;-72
2022/10/18 13:34:59;;;;;;;;;;;15.60;99.90;;;;;;6131341;23;19917;-72
2022/10/18 13:37:25;;;;;;;;;;;15.50;99.90;;;;;;6083115;23;19916;-73
2022/10/18 13:40:12;;;;;;;;;;;15.50;99.90;;;;;;6131506;23;19948;-72
2022/10/18 13:42:37;;;;;;;;;;;15.40;99.90;;;;;;6131762;23;19924;-71
2022/10/18 13:45:22;;;;;;;;;;;15.30;99.90;;;;;;6156530;23;19905;-69
2022/10/18 13:47:47;;;;;;;;;;;15.30;99.90;;;;;;6158498;23;19949;-69
2022/10/18 13:50:16;;;;;;;;;;;15.30;99.90;;;;;;6133842;23;19905;-68
2022/10/18 13:52:48;;;;;;;;;;;15.30;99.90;;;;;;6127510;23;19920;-72
2022/10/18 13:55:17;;;;;;;;;;;15.20;99.90;;;;;;6131179;23;19999;-73
2022/10/18 13:57:45;;;;;;;;;;;15.30;99.90;;;;;;6130768;23;19955;-73
2022/10/18 14:00:11;;;;;;;;;;;15.30;99.90;;;;;;6107061;23;19916;-73
2022/10/18 14:02:55;;;;;;;;;;;15.40;99.90;;;;;;6106797;23;20333;-74
2022/10/18 14:05:24;;;;;;;;;;;15.40;99.90;;;;;;6131245;23;20232;-73
2022/10/18 14:08:00;;;;;;;;;;;15.60;99.90;;;;;;6106991;23;19952;-73
2022/10/18 14:10:37;;;;;;;;;;;15.70;99.90;;;;;;6131424;23;19921;-73
2022/10/18 14:13:06;;;;;;;;;;;15.70;99.90;;;;;;6107067;23;19920;-72
2022/10/18 14:15:35;;;;;;;;;;;15.80;99.90;;;;;;6105680;23;19912;-74
2022/10/18 14:18:03;;;;;;;;;;;15.70;99.90;;;;;;6129702;23;19917;-72
2022/10/18 14:20:35;;;;;;;;;;;15.60;99.90;;;;;;6130775;23;19925;-73
2022/10/18 14:23:07;;;;;;;;;;;15.60;99.90;;;;;;6106394;23;19912;-72
2022/10/18 14:25:34;;;;;;;;;;;15.50;99.90;;;;;;6105910;23;19920;-73
2022/10/18 14:28:10;;;;;;;;;;;15.50;99.90;;;;;;6130798;23;20227;-73
2022/10/18 14:30:50;;;;;;;;;;;15.40;99.90;;;;;;6106425;23;19917;-72
2022/10/18 14:33:35;;;;;;;;;;;15.30;99.90;;;;;;6130514;23;20236;-73
2022/10/18 14:36:07;;;;;;;;;;;15.30;99.90;;;;;;6130092;23;19916;-73
2022/10/18 14:38:34;;;;;;;;;;;15.20;99.90;;;;;;6106066;23;19916;-73
2022/10/18 14:41:05;;;;;;;;;;;15.20;99.90;;;;;;6106592;23;19919;-73
2022/10/18 14:43:31;;;;;;;;;;;15.30;99.90;;;;;;6130269;23;19912;-73
2022/10/18 14:46:07;;;;;;;;;;;15.20;99.90;;;;;;6106137;23;19995;-73
2022/10/18 14:48:35;;;;;;;;;;;15.20;99.90;;;;;;6106149;23;19917;-73
2022/10/18 14:51:13;;;;;;;;;;;15.20;99.90;;;;;;6133120;23;19923;-72
2022/10/18 14:53:39;;;;;;;;;;;15.10;99.90;;;;;;6106454;23;19987;-72
2022/10/18 14:56:06;;;;;;;;;;;15.10;99.90;;;;;;6130726;23;19947;-71
2022/10/18 14:58:33;;;;;;;;;;;15.10;99.90;;;;;;6130526;23;19939;-71
2022/10/18 15:00:59;;;;;;;;;;;15.10;99.90;;;;;;6106482;23;19920;-70
2022/10/18 15:03:27;;;;;;;;;;;15.00;99.90;;;;;;6106023;23;20205;-71
2022/10/18 15:05:56;;;;;;;;;;;15.00;99.90;;;;;;6105549;23;19916;-70
2022/10/18 15:08:23;;;;;;;;;;;14.90;99.90;;;;;;6129886;23;19917;-70
2022/10/18 15:10:49;;;;;;;;;;;14.90;99.90;;;;;;6129677;23;19928;-69
2022/10/18 15:13:15;;;;;;;;;;;14.80;99.90;;;;;;6105433;23;19923;-70
2022/10/18 15:15:40;;;;;;;;;;;14.80;99.90;;;;;;6105475;23;19916;-71
2022/10/18 15:18:07;;;;;;;;;;;14.70;99.90;;;;;;6130276;23;20342;-70
2022/10/18 15:20:34;;;;;;;;;;;14.70;99.90;;;;;;6130916;23;20271;-70
2022/10/18 15:23:21;;;;;;;;;;;14.60;99.90;;;;;;6106269;23;19913;-70
2022/10/18 15:25:58;;;;;;;;;;;14.60;99.90;;;;;;6156627;23;19924;-71
2022/10/18 15:28:36;;;;;;;;;;;14.50;99.90;;;;;;6130675;23;20240;-71
2022/10/18 15:31:02;;;;;;;;;;;14.40;99.90;;;;;;6130490;23;19917;-71
2022/10/18 15:33:33;;;;;;;;;;;14.40;99.90;;;;;;6130644;23;20003;-70
2022/10/18 15:36:19;;;;;;;;;;;14.30;99.90;;;;;;6128432;23;19920;-71
2022/10/18 15:38:45;;;;;;;;;;;14.30;99.90;;;;;;6130175;23;19916;-70
2022/10/18 15:41:29;;;;;;;;;;;14.20;99.90;;;;;;6106719;23;20043;-70
2022/10/18 15:44:07;;;;;;;;;;;14.20;99.90;;;;;;6130235;23;20312;-70
2022/10/18 15:46:39;;;;;;;;;;;14.20;99.90;;;;;;6129522;23;19924;-74
2022/10/18 15:49:23;;;;;;;;;;;14.20;99.90;;;;;;6105791;23;19920;-74
2022/10/18 15:55:00;;;;;;;;;;;14.10;99.90;;;;;;6100093;23;19917;-74
2022/10/18 15:57:28;;;;;;;;;;;14.10;99.90;;;;;;6130651;23;19913;-74
2022/10/18 16:00:05;;;;;;;;;;;14.00;99.90;;;;;;6107714;23;19913;-73
2022/10/18 16:02:31;;;;;;;;;;;13.90;99.90;;;;;;6132286;23;19987;-74
2022/10/18 16:05:00;;;;;;;;;;;13.90;99.90;;;;;;6107672;23;19947;-74
2022/10/18 16:07:29;;;;;;;;;;;13.80;99.90;;;;;;6107818;23;20208;-74
2022/10/18 16:09:57;;;;;;;;;;;13.80;99.90;;;;;;6132258;23;19920;-73
2022/10/18 16:12:24;;;;;;;;;;;13.80;99.90;;;;;;6132161;23;19913;-79
2022/10/18 16:14:52;;;;;;;;;;;13.80;99.90;;;;;;6107777;23;19923;-73
2022/10/18 16:17:17;;;;;;;;;;;13.70;99.90;;;;;;6106977;23;19983;-74
2022/10/18 16:19:43;;;;;;;;;;;13.60;99.90;;;;;;6107748;23;19995;-74
2022/10/18 16:22:14;;;;;;;;;;;13.50;99.90;;;;;;6132144;23;20367;-74
2022/10/18 16:24:40;;;;;;;;;;;13.30;99.90;;;;;;6131571;23;19996;-74
2022/10/18 16:27:05;;;;;;;;;;;13.40;99.90;;;;;;6107167;23;20235;-73
2022/10/18 16:29:31;;;;;;;;;;;13.30;99.90;;;;;;6106954;23;19913;-73
2022/10/18 16:31:59;;;;;;;;;;;13.30;99.90;;;;;;6107095;23;19948;-72
2022/10/18 16:34:31;;;;;;;;;;;13.40;99.90;;;;;;6131896;23;20260;-74
2022/10/18 16:36:56;;;;;;;;;;;13.40;99.90;;;;;;6131167;23;19913;-74
2022/10/18 16:39:22;;;;;;;;;;;13.30;99.90;;;;;;6107403;23;19916;-75
2022/10/18 16:41:48;;;;;;;;;;;13.20;99.90;;;;;;6107088;23;20371;-75
2022/10/18 16:44:14;;;;;;;;;;;13.20;99.90;;;;;;6107259;23;20080;-74
2022/10/18 16:46:40;;;;;;;;;;;13.20;99.90;;;;;;6107388;23;20007;-75
2022/10/18 16:49:06;;;;;;;;;;;13.10;99.90;;;;;;6107423;23;20328;-75
2022/10/18 16:51:32;;;;;;;;;;;13.10;99.90;;;;;;6107415;23;19913;-75
2022/10/18 16:53:57;;;;;;;;;;;13.10;99.90;;;;;;6107217;23;19913;-75
2022/10/18 16:56:24;;;;;;;;;;;13.00;99.90;;;;;;6131794;23;20204;-75
2022/10/18 16:58:51;;;;;;;;;;;13.00;99.90;;;;;;6129471;23;19924;-75
2022/10/18 17:01:17;;;;;;;;;;;12.90;99.90;;;;;;6105831;23;20316;-78
2022/10/18 17:03:43;;;;;;;;;;;12.90;99.90;;;;;;6130646;23;19916;-78
2022/10/18 17:06:13;;;;;;;;;;;12.90;99.90;;;;;;6106762;23;19912;-76
2022/10/18 17:08:38;;;;;;;;;;;12.90;99.90;;;;;;6105576;23;19963;-76
2022/10/18 17:11:04;;;;;;;;;;;12.90;99.90;;;;;;6105944;23;20243;-74
2022/10/18 17:13:30;;;;;;;;;;;12.90;99.90;;;;;;6106499;23;19912;-74
2022/10/18 17:15:55;;;;;;;;;;;12.80;99.90;;;;;;6130513;23;20417;-73
2022/10/18 17:18:25;;;;;;;;;;;12.80;99.90;;;;;;6106781;23;19917;-76
2022/10/18 17:20:51;;;;;;;;;;;12.80;99.90;;;;;;6106805;23;19919;-76
2022/10/18 17:23:19;;;;;;;;;;;12.80;99.90;;;;;;6106235;23;19913;-76
2022/10/18 17:25:45;;;;;;;;;;;12.80;99.90;;;;;;6107205;23;19962;-73
2022/10/18 17:28:13;;;;;;;;;;;12.70;99.90;;;;;;6107026;23;19919;-73
2022/10/18 17:30:39;;;;;;;;;;;12.70;99.90;;;;;;6082813;23;19943;-74
2022/10/18 17:33:04;;;;;;;;;;;12.70;99.90;;;;;;6106724;23;20295;-73
2022/10/18 17:35:30;;;;;;;;;;;12.80;99.90;;;;;;6106501;23;19967;-74
2022/10/18 17:37:56;;;;;;;;;;;12.70;99.90;;;;;;6131055;23;19948;-74
2022/10/18 17:40:22;;;;;;;;;;;12.80;99.90;;;;;;6131411;23;19921;-74
2022/10/18 17:42:49;;;;;;;;;;;12.80;99.90;;;;;;6131291;23;19917;-73
2022/10/18 17:45:15;;;;;;;;;;;12.80;99.90;;;;;;6106651;23;19919;-74
2022/10/18 17:47:41;;;;;;;;;;;12.70;99.90;;;;;;6106641;23;19912;-74
2022/10/18 17:50:06;;;;;;;;;;;12.70;99.90;;;;;;6106598;23;19917;-75
2022/10/18 17:52:32;;;;;;;;;;;12.70;99.90;;;;;;6157267;23;19916;-74
2022/10/18 17:54:58;;;;;;;;;;;12.60;99.90;;;;;;6106633;23;19931;-73
2022/10/18 17:57:23;;;;;;;;;;;12.50;99.90;;;;;;6131761;23;20032;-74
2022/10/18 17:59:49;;;;;;;;;;;12.50;99.90;;;;;;6106511;23;19913;-74
2022/10/18 18:02:15;;;;;;;;;;;12.50;99.90;;;;;;6106482;23;20345;-74
2022/10/18 18:04:40;;;;;;;;;;;12.40;99.90;;;;;;6106927;23;20283;-76
2022/10/18 18:07:06;;;;;;;;;;;12.40;99.90;;;;;;6106195;23;19923;-75
2022/10/18 18:09:32;;;;;;;;;;;12.40;99.90;;;;;;6131234;23;19923;-75
2022/10/18 18:11:57;;;;;;;;;;;12.40;99.90;;;;;;6106935;23;19917;-77
2022/10/18 18:14:23;;;;;;;;;;;12.40;99.90;;;;;;6130758;23;19917;-71
2022/10/18 18:16:51;;;;;;;;;;;12.40;99.90;;;;;;6106184;23;19923;-74
2022/10/18 18:19:46;;;;;;;;;;;12.40;99.90;;;;;;6109389;23;19919;-73
2022/10/18 18:25:19;;;;;;;;;;;12.40;99.90;;;;;;6130504;23;19955;-72
2022/10/18 18:27:58;;;;;;;;;;;12.40;99.90;;;;;;6130346;23;19924;-73
2022/10/18 18:30:48;;;;;;;;;;;12.40;99.90;;;;;;6019498;23;19960;-73
2022/10/18 18:34:01;;;;;;;;;;;12.40;99.90;;;;;;5956721;23;19914;-75
2022/10/18 18:36:47;;;;;;;;;;;12.40;99.90;;;;;;6018415;23;19920;-73
2022/10/18 18:42:29;;;;;;;;;;;12.40;99.90;;;;;;6002713;23;19992;-74
2022/10/18 18:45:19;;;;;;;;;;;12.40;99.90;;;;;;6008601;23;20170;-74
2022/10/18 18:48:00;;;;;;;;;;;12.50;99.90;;;;;;5978628;23;19914;-73
2022/10/18 18:54:01;;;;;;;;;;;12.40;99.90;;;;;;5966859;23;19925;-73
2022/10/18 18:56:56;;;;;;;;;;;12.40;99.90;;;;;;5991094;23;19954;-73
2022/10/18 19:00:03;;;;;;;;;;;12.40;99.90;;;;;;6037660;23;20377;-73
2022/10/18 19:02:31;;;;;;;;;;;12.30;99.90;;;;;;5982228;23;19972;-76
2022/10/18 19:04:57;;;;;;;;;;;12.20;99.90;;;;;;6037810;23;19914;-73
2022/10/18 19:07:23;;;;;;;;;;;12.20;99.90;;;;;;6010365;23;19950;-74
2022/10/18 19:09:49;;;;;;;;;;;12.20;99.90;;;;;;6037165;23;19914;-74
2022/10/18 19:12:15;;;;;;;;;;;12.20;99.90;;;;;;6038622;23;19952;-72
2022/10/18 19:14:41;;;;;;;;;;;12.10;99.90;;;;;;6041532;23;19914;-74
2022/10/18 19:17:06;;;;;;;;;;;12.20;99.90;;;;;;6102638;23;19916;-74
2022/10/18 19:19:39;;;;;;;;;;;12.10;99.90;;;;;;6105380;23;20278;-75
2022/10/18 19:22:10;;;;;;;;;;;12.10;99.90;;;;;;6105732;23;19913;-76
2022/10/18 19:24:36;;;;;;;;;;;12.10;99.90;;;;;;6129797;23;19913;-76
2022/10/18 19:27:03;;;;;;;;;;;12.10;99.90;;;;;;6105252;23;19912;-78
2022/10/18 19:29:32;;;;;;;;;;;12.30;99.90;;;;;;6105053;23;19916;-76
2022/10/18 19:31:59;;;;;;;;;;;12.10;99.90;;;;;;6130973;23;20347;-74
2022/10/18 19:34:29;;;;;;;;;;;12.20;99.90;;;;;;6107310;23;19913;-75
2022/10/18 19:36:55;;;;;;;;;;;12.20;99.90;;;;;;6107364;23;19920;-76
2022/10/18 19:39:22;;;;;;;;;;;12.30;99.90;;;;;;6107337;23;19979;-77
2022/10/18 19:41:49;;;;;;;;;;;12.30;99.90;;;;;;6107961;23;19924;-74
2022/10/18 19:44:16;;;;;;;;;;;12.40;99.90;;;;;;6132038;23;19987;-73
2022/10/18 19:46:41;;;;;;;;;;;12.30;99.90;;;;;;6131349;23;19913;-73
2022/10/18 19:49:07;;;;;;;;;;;12.40;99.90;;;;;;6107156;23;19964;-69
2022/10/18 19:51:33;;;;;;;;;;;12.40;99.90;;;;;;6106857;23;20243;-71
2022/10/18 19:53:59;;;;;;;;;;;12.40;99.90;;;;;;6107103;23;19917;-72
2022/10/18 19:56:30;;;;;;;;;;;12.40;99.90;;;;;;6131552;23;20006;-72
2022/10/18 19:58:57;;;;;;;;;;;12.30;99.90;;;;;;6107445;23;19916;-75
2022/10/18 20:01:23;;;;;;;;;;;12.40;99.90;;;;;;6107104;23;19913;-75
2022/10/18 20:03:49;;;;;;;;;;;12.40;99.90;;;;;;6107055;23;19916;-77
2022/10/18 20:06:14;;;;;;;;;;;12.40;99.90;;;;;;6131613;23;19912;-72
2022/10/18 20:08:54;;;;;;;;;;;12.40;99.90;;;;;;6106694;23;19917;-74
2022/10/18 20:11:23;;;;;;;;;;;12.20;99.90;;;;;;6100530;23;19913;-74
2022/10/18 20:13:49;;;;;;;;;;;12.20;99.90;;;;;;6131650;23;19917;-74
2022/10/18 20:19:42;;;;;;;;;;;12.20;99.90;;;;;;6152699;23;19933;-73
2022/10/18 20:22:15;;;;;;;;;;;12.10;99.90;;;;;;6104704;23;20260;-73
2022/10/18 20:25:12;;;;;;;;;;;12.00;99.90;;;;;;6134414;23;19967;-74
2022/10/18 20:28:31;;;;;;;;;;;11.90;99.90;;;;;;6121734;23;19943;-73
2022/10/18 20:38:00;;;;;;;;;;;11.50;99.90;;;;;;6038953;23;20351;-73
2022/10/18 20:44:47;;;;;;;;;;;11.30;99.90;;;;;;6145067;23;20038;-77
2022/10/18 21:01:50;;;;;;;;;;;;;;;;;;;;;
2022/10/18 21:04:50;;;;;;;;;;;10.70;99.90;;;;;;6009952;23;19913;-74
2022/10/18 21:07:16;;;;;;;;;;;10.60;99.90;;;;;;6010255;23;19914;-73
2022/10/18 21:09:42;;;;;;;;;;;10.60;99.90;;;;;;6040484;23;19912;-73
2022/10/18 21:12:07;;;;;;;;;;;10.40;99.90;;;;;;6132363;23;19919;-72
2022/10/18 21:14:33;;;;;;;;;;;10.40;99.90;;;;;;6131991;23;20216;-73
2022/10/18 21:16:58;;;;;;;;;;;10.30;99.90;;;;;;6129690;23;19955;-73
2022/10/18 21:19:25;;;;;;;;;;;10.20;99.90;;;;;;6135264;23;19928;-73